Terminal Aerodrome Forecast
Issued by NWS Louisville, KY

Home | Current Version | Previous Version | Text Only | Print | Product List | Glossary On
Versions: 1 2 3 4 5 6 7 8 9 10 11 12 13 14 15 16
876
FTUS43 KLMK 201130
TAFLEX
TAF
KLEX 201130Z 2012/2112 19014G20KT P6SM SCT200 WS020/22045KT
     FM201500 20018G30KT P6SM FEW070 SCT250
     FM210100 19014G23KT P6SM SCT035 BKN090
     FM211100 20014KT P6SM SCT020 BKN030=

USA.gov is the U.S. government's official web portal to all federal, state and local government web resources and services.